Lenexa, KS

7:34 PM CST on January 23, 2017 (GMT -0600)
Jack's Weather Station - GES | | Change Station

Elev 980 ft 38.98 °N, 94.74 °W | Updated 55 seconds ago

Clear
Clear
35.8 °F
Feels Like 36 °F
N
1.1
Wind Variable Wind from SE

Today
High -- | Low -- °F
--% Chance of Precip.
Yesterday
High -- | Low -- °F
Precip. -- in
Pressure 29.85 in
Visibility 8.0 miles
Clouds Clear
Windchill 36 °F
Dew Point 34 °F
Humidity 92%
Rainfall 0.00 in
Snow Depth Not available.
7:32 AM 5:30 PM
Waning Crescent, 15% visible
METAR KOJC 240053Z 11005KT 8SM CLR 02/01 A2982 RMK AO2 SLP107 T00220006
Pressure 29.85 in
Visibility 8.0 miles
Clouds Clear
Windchill 36 °F
Dew Point 34 °F
Humidity 92%
Rainfall 0.00 in
Snow Depth Not available.
7:32 AM 5:30 PM
Waning Crescent, 15% visible
METAR KOJC 240053Z 11005KT 8SM CLR 02/01 A2982 RMK AO2 SLP107 T00220006

Get Your Daily Forecast Email!

Thanks for signing up!

Be on the lookout for a verification email in your inbox.

You'll start receiving the daily forecast at 8 AM.

×

10-Day Weather Forecast

Almanac

Astronomy

Jan. 23, 2017 Rise Set
Actual Time
Civil Twilight
Nautical Twilight
Astronomical Twilight
Moon
Length of Visible Light
Length of Day
Tomorrow will be .
, % of the Moon is Illuminated

Today's Extremes

State Highs State Lows

Community

WunderPhotos

Upload Photos

1,962,540 photos uploaded!

WunderBlog® & News

Nearby

Air Quality

  Air Quality AQ Index Pollutant
Not available.

Snow Depth

Station Depth Elevation

Earthquake Activity

City Distance Mag. Time & Date
Minimum magnitude displayed is 2.5.

Coastal Water Temperatures

Place Temperature

Stations

Nearby Weather Stations

Station Location Temp. Windchill Dew Point Humidity Wind Precip. Elev Updated Type
                   

Watches & Warnings

There are currently no watches in effect.